sensor_id;sensor_type;location;lat;lon;timestamp;pressure;altitude;pressure_sealevel;temperature;humidity
23281;BME280;11809;56.390;-3.266;2022-08-21T00:01:37;100400.94;;;19.09;57.17
23281;BME280;11809;56.390;-3.266;2022-08-21T00:04:08;100398.41;;;19.08;57.04
23281;BME280;11809;56.390;-3.266;2022-08-21T00:06:36;100403.00;;;19.06;57.08
23281;BME280;11809;56.390;-3.266;2022-08-21T00:09:05;100401.31;;;19.05;57.35
23281;BME280;11809;56.390;-3.266;2022-08-21T00:11:37;100407.59;;;19.04;57.12
23281;BME280;11809;56.390;-3.266;2022-08-21T00:14:06;100404.22;;;19.02;57.38
23281;BME280;11809;56.390;-3.266;2022-08-21T00:16:33;100406.03;;;19.01;57.56
23281;BME280;11809;56.390;-3.266;2022-08-21T00:19:00;100413.16;;;19.01;57.33
23281;BME280;11809;56.390;-3.266;2022-08-21T00:21:27;100414.16;;;19.00;57.36
23281;BME280;11809;56.390;-3.266;2022-08-21T00:23:54;100416.81;;;19.00;57.38
23281;BME280;11809;56.390;-3.266;2022-08-21T00:26:21;100415.13;;;18.99;57.43
23281;BME280;11809;56.390;-3.266;2022-08-21T00:28:48;100413.31;;;18.99;57.39
23281;BME280;11809;56.390;-3.266;2022-08-21T00:31:16;100411.59;;;18.98;57.23
23281;BME280;11809;56.390;-3.266;2022-08-21T00:33:45;100410.75;;;18.98;56.98
23281;BME280;11809;56.390;-3.266;2022-08-21T00:36:12;100406.41;;;18.97;57.40
23281;BME280;11809;56.390;-3.266;2022-08-21T00:38:40;100402.88;;;18.96;57.31
23281;BME280;11809;56.390;-3.266;2022-08-21T00:41:10;100400.34;;;18.95;57.56
23281;BME280;11809;56.390;-3.266;2022-08-21T00:43:57;100400.34;;;18.95;57.57
23281;BME280;11809;56.390;-3.266;2022-08-21T00:46:24;100396.94;;;18.93;57.42
23281;BME280;11809;56.390;-3.266;2022-08-21T00:48:54;100396.94;;;18.93;57.58
23281;BME280;11809;56.390;-3.266;2022-08-21T00:51:41;100395.28;;;18.92;57.72
23281;BME280;11809;56.390;-3.266;2022-08-21T00:54:10;100388.25;;;18.91;57.48
23281;BME280;11809;56.390;-3.266;2022-08-21T00:56:44;100393.44;;;18.92;57.47
23281;BME280;11809;56.390;-3.266;2022-08-21T00:59:11;100396.09;;;18.92;57.83
23281;BME280;11809;56.390;-3.266;2022-08-21T01:01:38;100396.34;;;18.89;57.50
23281;BME280;11809;56.390;-3.266;2022-08-21T01:04:05;100399.13;;;18.88;57.92
23281;BME280;11809;56.390;-3.266;2022-08-21T01:06:32;100399.97;;;18.88;57.39
23281;BME280;11809;56.390;-3.266;2022-08-21T01:08:59;100389.47;;;18.87;57.59
23281;BME280;11809;56.390;-3.266;2022-08-21T01:11:26;100387.75;;;18.86;57.73
23281;BME280;11809;56.390;-3.266;2022-08-21T01:13:54;100394.78;;;18.87;57.70
23281;BME280;11809;56.390;-3.266;2022-08-21T01:16:22;100392.13;;;18.87;57.76
23281;BME280;11809;56.390;-3.266;2022-08-21T01:18:50;100393.06;;;18.86;57.71
23281;BME280;11809;56.390;-3.266;2022-08-21T01:21:23;100397.69;;;18.84;57.87
23281;BME280;11809;56.390;-3.266;2022-08-21T01:23:56;100402.16;;;18.83;57.65
23281;BME280;11809;56.390;-3.266;2022-08-21T01:26:30;100392.34;;;18.84;57.72
23281;BME280;11809;56.390;-3.266;2022-08-21T01:31:33;100386.19;;;18.83;57.91
23281;BME280;11809;56.390;-3.266;2022-08-21T01:34:00;100387.28;;;18.81;57.60
23281;BME280;11809;56.390;-3.266;2022-08-21T01:36:27;100392.59;;;18.81;57.75
23281;BME280;11809;56.390;-3.266;2022-08-21T01:38:55;100391.75;;;18.80;57.73
23281;BME280;11809;56.390;-3.266;2022-08-21T01:41:22;100397.91;;;18.81;58.06
23281;BME280;11809;56.390;-3.266;2022-08-21T01:43:49;100394.53;;;18.79;57.78
23281;BME280;11809;56.390;-3.266;2022-08-21T01:46:16;100398.16;;;18.77;57.93
23281;BME280;11809;56.390;-3.266;2022-08-21T01:48:43;100397.31;;;18.77;57.80
23281;BME280;11809;56.390;-3.266;2022-08-21T01:51:10;100393.78;;;18.76;57.97
23281;BME280;11809;56.390;-3.266;2022-08-21T01:53:38;100392.09;;;18.75;57.95
23281;BME280;11809;56.390;-3.266;2022-08-21T01:56:09;100391.13;;;18.76;57.98
23281;BME280;11809;56.390;-3.266;2022-08-21T01:58:40;100389.44;;;18.75;58.08
23281;BME280;11809;56.390;-3.266;2022-08-21T02:01:08;100397.44;;;18.75;57.94
23281;BME280;11809;56.390;-3.266;2022-08-21T02:03:37;100395.72;;;18.74;57.89
23281;BME280;11809;56.390;-3.266;2022-08-21T02:06:05;100402.84;;;18.74;58.12
23281;BME280;11809;56.390;-3.266;2022-08-21T02:08:34;100404.66;;;18.73;57.86
23281;BME280;11809;56.390;-3.266;2022-08-21T02:11:01;100402.00;;;18.73;57.97
23281;BME280;11809;56.390;-3.266;2022-08-21T02:13:28;100396.69;;;18.73;58.02
23281;BME280;11809;56.390;-3.266;2022-08-21T02:15:55;100398.63;;;18.71;58.10
23281;BME280;11809;56.390;-3.266;2022-08-21T02:18:22;100398.75;;;18.70;58.20
23281;BME280;11809;56.390;-3.266;2022-08-21T02:20:50;100389.91;;;18.69;58.11
23281;BME280;11809;56.390;-3.266;2022-08-21T02:23:23;100396.09;;;18.70;58.11
23281;BME280;11809;56.390;-3.266;2022-08-21T02:25:59;100397.91;;;18.69;58.23
23281;BME280;11809;56.390;-3.266;2022-08-21T02:28:27;100395.38;;;18.68;58.18
23281;BME280;11809;56.390;-3.266;2022-08-21T02:30:55;100394.53;;;18.67;58.23
23281;BME280;11809;56.390;-3.266;2022-08-21T02:33:23;100398.84;;;18.68;58.05
23281;BME280;11809;56.390;-3.266;2022-08-21T02:35:50;100399.00;;;18.67;58.22
23281;BME280;11809;56.390;-3.266;2022-08-21T02:38:30;100395.47;;;18.66;58.40
23281;BME280;11809;56.390;-3.266;2022-08-21T02:40:57;100398.13;;;18.66;58.50
23281;BME280;11809;56.390;-3.266;2022-08-21T02:43:26;100390.16;;;18.66;58.15
23281;BME280;11809;56.390;-3.266;2022-08-21T02:45:55;100393.78;;;18.65;58.44
23281;BME280;11809;56.390;-3.266;2022-08-21T02:48:26;100397.41;;;18.64;58.16
23281;BME280;11809;56.390;-3.266;2022-08-21T02:51:02;100396.47;;;18.65;58.21
23281;BME280;11809;56.390;-3.266;2022-08-21T02:53:31;100395.69;;;18.63;58.00
23281;BME280;11809;56.390;-3.266;2022-08-21T02:56:00;100398.38;;;18.63;58.30
23281;BME280;11809;56.390;-3.266;2022-08-21T02:58:30;100392.19;;;18.63;58.06
23281;BME280;11809;56.390;-3.266;2022-08-21T03:00:57;100403.81;;;18.62;58.22
23281;BME280;11809;56.390;-3.266;2022-08-21T03:03:28;100401.25;;;18.60;58.45
23281;BME280;11809;56.390;-3.266;2022-08-21T03:05:55;100403.81;;;18.62;58.32
23281;BME280;11809;56.390;-3.266;2022-08-21T03:08:23;100396.94;;;18.59;58.33
23281;BME280;11809;56.390;-3.266;2022-08-21T03:10:53;100403.09;;;18.60;58.35
23281;BME280;11809;56.390;-3.266;2022-08-21T03:13:20;100403.19;;;18.58;58.17
23281;BME280;11809;56.390;-3.266;2022-08-21T03:15:49;100406.84;;;18.57;58.13
23281;BME280;11809;56.390;-3.266;2022-08-21T03:18:16;100397.16;;;18.56;58.03
23281;BME280;11809;56.390;-3.266;2022-08-21T03:20:44;100394.50;;;18.56;57.98
23281;BME280;11809;56.390;-3.266;2022-08-21T03:23:13;100400.78;;;18.55;58.18
23281;BME280;11809;56.390;-3.266;2022-08-21T03:25:45;100402.72;;;18.53;58.31
23281;BME280;11809;56.390;-3.266;2022-08-21T03:28:16;100408.03;;;18.53;58.21
23281;BME280;11809;56.390;-3.266;2022-08-21T03:30:45;100408.97;;;18.52;58.33
23281;BME280;11809;56.390;-3.266;2022-08-21T03:33:13;100408.16;;;18.52;58.49
23281;BME280;11809;56.390;-3.266;2022-08-21T03:35:45;100405.50;;;18.52;58.29
23281;BME280;11809;56.390;-3.266;2022-08-21T03:38:14;100407.31;;;18.51;58.38
23281;BME280;11809;56.390;-3.266;2022-08-21T03:40:42;100409.97;;;18.51;58.36
23281;BME280;11809;56.390;-3.266;2022-08-21T03:43:10;100402.00;;;18.51;58.51
23281;BME280;11809;56.390;-3.266;2022-08-21T03:45:38;100400.28;;;18.50;58.41
23281;BME280;11809;56.390;-3.266;2022-08-21T03:48:07;100407.41;;;18.50;58.31
23281;BME280;11809;56.390;-3.266;2022-08-21T03:50:37;100404.75;;;18.50;58.39
23281;BME280;11809;56.390;-3.266;2022-08-21T03:53:07;100415.41;;;18.50;58.42
23281;BME280;11809;56.390;-3.266;2022-08-21T03:55:47;100413.72;;;18.49;58.52
23281;BME280;11809;56.390;-3.266;2022-08-21T03:58:16;100420.00;;;18.48;58.59
23281;BME280;11809;56.390;-3.266;2022-08-21T04:00:49;100412.88;;;18.48;58.49
23281;BME280;11809;56.390;-3.266;2022-08-21T04:03:17;100413.06;;;18.45;58.69
23281;BME280;11809;56.390;-3.266;2022-08-21T04:05:44;100411.34;;;18.44;58.63
23281;BME280;11809;56.390;-3.266;2022-08-21T04:08:13;100413.06;;;18.45;58.79
23281;BME280;11809;56.390;-3.266;2022-08-21T04:10:42;100412.34;;;18.43;58.72
23281;BME280;11809;56.390;-3.266;2022-08-21T04:13:10;100413.28;;;18.42;58.68
23281;BME280;11809;56.390;-3.266;2022-08-21T04:15:37;100416.81;;;18.43;58.51
23281;BME280;11809;56.390;-3.266;2022-08-21T04:18:04;100418.59;;;18.42;58.76
23281;BME280;11809;56.390;-3.266;2022-08-21T04:20:32;100422.13;;;18.43;58.50
23281;BME280;11809;56.390;-3.266;2022-08-21T04:23:00;100424.91;;;18.41;58.60
23281;BME280;11809;56.390;-3.266;2022-08-21T04:25:27;100429.47;;;18.39;58.82
23281;BME280;11809;56.390;-3.266;2022-08-21T04:27:55;100434.81;;;18.39;58.74
23281;BME280;11809;56.390;-3.266;2022-08-21T04:30:22;100433.13;;;18.38;58.87
23281;BME280;11809;56.390;-3.266;2022-08-21T04:32:55;100435.88;;;18.37;58.77
23281;BME280;11809;56.390;-3.266;2022-08-21T04:35:25;100443.03;;;18.36;58.67
23281;BME280;11809;56.390;-3.266;2022-08-21T04:37:52;100442.06;;;18.37;58.70
23281;BME280;11809;56.390;-3.266;2022-08-21T04:40:20;100445.72;;;18.36;58.85
23281;BME280;11809;56.390;-3.266;2022-08-21T04:42:53;100450.28;;;18.34;58.77
23281;BME280;11809;56.390;-3.266;2022-08-21T04:47:53;100449.53;;;18.32;58.88
23281;BME280;11809;56.390;-3.266;2022-08-21T04:50:24;100452.06;;;18.34;58.75
23281;BME280;11809;56.390;-3.266;2022-08-21T04:52:52;100452.22;;;18.32;58.66
23281;BME280;11809;56.390;-3.266;2022-08-21T04:55:20;100462.84;;;18.32;58.86
23281;BME280;11809;56.390;-3.266;2022-08-21T04:57:49;100461.13;;;18.31;58.90
23281;BME280;11809;56.390;-3.266;2022-08-21T05:00:17;100459.47;;;18.30;58.95
23281;BME280;11809;56.390;-3.266;2022-08-21T05:02:45;100467.44;;;18.30;58.72
23281;BME280;11809;56.390;-3.266;2022-08-21T05:05:15;100478.09;;;18.30;58.91
23281;BME280;11809;56.390;-3.266;2022-08-21T05:07:44;100475.41;;;18.30;58.90
23281;BME280;11809;56.390;-3.266;2022-08-21T05:10:12;100488.00;;;18.28;59.05
23281;BME280;11809;56.390;-3.266;2022-08-21T05:12:44;100492.34;;;18.29;58.92
23281;BME280;11809;56.390;-3.266;2022-08-21T05:15:12;100489.81;;;18.28;58.81
23281;BME280;11809;56.390;-3.266;2022-08-21T05:17:41;100486.16;;;18.29;58.72
23281;BME280;11809;56.390;-3.266;2022-08-21T05:20:10;100483.63;;;18.27;59.08
23281;BME280;11809;56.390;-3.266;2022-08-21T05:22:37;100478.31;;;18.27;59.03
23281;BME280;11809;56.390;-3.266;2022-08-21T05:25:06;100469.47;;;18.27;58.74
23281;BME280;11809;56.390;-3.266;2022-08-21T05:27:36;100470.41;;;18.26;59.13
23281;BME280;11809;56.390;-3.266;2022-08-21T05:30:06;100477.59;;;18.25;59.06
23281;BME280;11809;56.390;-3.266;2022-08-21T05:32:35;100485.56;;;18.25;59.19
23281;BME280;11809;56.390;-3.266;2022-08-21T05:35:04;100493.53;;;18.25;58.93
23281;BME280;11809;56.390;-3.266;2022-08-21T05:37:32;100485.34;;;18.28;59.15
23281;BME280;11809;56.390;-3.266;2022-08-21T05:40:00;100483.63;;;18.27;59.17
23281;BME280;11809;56.390;-3.266;2022-08-21T05:42:47;100491.69;;;18.26;59.20
23281;BME280;11809;56.390;-3.266;2022-08-21T05:45:22;100499.69;;;18.26;59.09
23281;BME280;11809;56.390;-3.266;2022-08-21T05:48:20;100507.66;;;18.26;59.54
23281;BME280;11809;56.390;-3.266;2022-08-21T05:50:49;100507.66;;;18.26;59.78
23281;BME280;11809;56.390;-3.266;2022-08-21T05:53:17;100520.25;;;18.24;60.29
23281;BME280;11809;56.390;-3.266;2022-08-21T05:55:45;100517.72;;;18.22;60.46
23281;BME280;11809;56.390;-3.266;2022-08-21T05:58:17;100511.41;;;18.23;60.24
23281;BME280;11809;56.390;-3.266;2022-08-21T06:00:46;100508.53;;;18.26;60.63
23281;BME280;11809;56.390;-3.266;2022-08-21T06:03:18;100512.97;;;18.26;60.59
23281;BME280;11809;56.390;-3.266;2022-08-21T06:05:46;100511.31;;;18.25;61.07
23281;BME280;11809;56.390;-3.266;2022-08-21T06:08:14;100514.81;;;18.25;60.79
23281;BME280;11809;56.390;-3.266;2022-08-21T06:10:43;100514.81;;;18.25;61.00
23281;BME280;11809;56.390;-3.266;2022-08-21T06:13:10;100511.94;;;18.28;60.77
23281;BME280;11809;56.390;-3.266;2022-08-21T06:15:38;100514.59;;;18.28;60.77
23281;BME280;11809;56.390;-3.266;2022-08-21T06:18:06;100519.91;;;18.28;60.39
23281;BME280;11809;56.390;-3.266;2022-08-21T06:20:33;100527.91;;;18.28;60.64
23281;BME280;11809;56.390;-3.266;2022-08-21T06:23:00;100523.53;;;18.27;60.57
23281;BME280;11809;56.390;-3.266;2022-08-21T06:25:27;100520.75;;;18.29;60.52
23281;BME280;11809;56.390;-3.266;2022-08-21T06:30:29;100527.91;;;18.28;60.70
23281;BME280;11809;56.390;-3.266;2022-08-21T06:32:56;100534.91;;;18.29;60.62
23281;BME280;11809;56.390;-3.266;2022-08-21T06:35:24;100534.69;;;18.32;60.42
23281;BME280;11809;56.390;-3.266;2022-08-21T06:37:51;100529.34;;;18.32;60.25
23281;BME280;11809;56.390;-3.266;2022-08-21T06:40:18;100531.91;;;18.34;60.06
23281;BME280;11809;56.390;-3.266;2022-08-21T06:42:47;100537.00;;;18.37;60.39
23281;BME280;11809;56.390;-3.266;2022-08-21T06:45:14;100538.69;;;18.38;60.27
23281;BME280;11809;56.390;-3.266;2022-08-21T06:47:41;100528.91;;;18.38;59.90
23281;BME280;11809;56.390;-3.266;2022-08-21T06:50:08;100543.91;;;18.39;60.05
23281;BME280;11809;56.390;-3.266;2022-08-21T06:52:37;100542.09;;;18.40;60.00
23281;BME280;11809;56.390;-3.266;2022-08-21T06:55:06;100540.16;;;18.42;60.07
23281;BME280;11809;56.390;-3.266;2022-08-21T06:57:34;100546.34;;;18.42;59.87
23281;BME280;11809;56.390;-3.266;2022-08-21T07:00:04;100542.81;;;18.42;60.00
23281;BME280;11809;56.390;-3.266;2022-08-21T07:02:32;100552.28;;;18.46;59.79
23281;BME280;11809;56.390;-3.266;2022-08-21T07:05:00;100546.13;;;18.45;59.99
23281;BME280;11809;56.390;-3.266;2022-08-21T07:07:45;100546.88;;;18.47;60.05
23281;BME280;11809;56.390;-3.266;2022-08-21T07:10:13;100543.25;;;18.48;59.91
23281;BME280;11809;56.390;-3.266;2022-08-21T07:12:48;100555.63;;;18.49;59.97
23281;BME280;11809;56.390;-3.266;2022-08-21T07:15:16;100553.72;;;18.39;58.32
23281;BME280;11809;56.390;-3.266;2022-08-21T07:17:43;100559.03;;;18.39;59.44
23281;BME280;11809;56.390;-3.266;2022-08-21T07:20:10;100568.59;;;18.41;59.69
23281;BME280;11809;56.390;-3.266;2022-08-21T07:22:39;100575.50;;;18.44;60.06
23281;BME280;11809;56.390;-3.266;2022-08-21T07:25:07;100564.00;;;18.43;59.74
23281;BME280;11809;56.390;-3.266;2022-08-21T07:27:35;100572.72;;;18.45;59.91
23281;BME280;11809;56.390;-3.266;2022-08-21T07:30:04;100578.72;;;18.49;60.07
23281;BME280;11809;56.390;-3.266;2022-08-21T07:32:31;100577.84;;;18.48;60.26
23281;BME280;11809;56.390;-3.266;2022-08-21T07:34:58;100581.25;;;18.50;60.53
23281;BME280;11809;56.390;-3.266;2022-08-21T07:37:25;100579.31;;;18.52;60.18
23281;BME280;11809;56.390;-3.266;2022-08-21T07:39:53;100581.75;;;18.55;59.94
23281;BME280;11809;56.390;-3.266;2022-08-21T07:42:20;100585.19;;;18.57;59.99
23281;BME280;11809;56.390;-3.266;2022-08-21T07:44:50;100592.06;;;18.60;59.76
23281;BME280;11809;56.390;-3.266;2022-08-21T07:47:21;100596.31;;;18.62;60.06
23281;BME280;11809;56.390;-3.266;2022-08-21T07:50:09;100600.66;;;18.63;59.58
23281;BME280;11809;56.390;-3.266;2022-08-21T07:52:39;100593.44;;;18.65;60.25
23281;BME280;11809;56.390;-3.266;2022-08-21T07:55:10;100603.84;;;18.68;60.12
23281;BME280;11809;56.390;-3.266;2022-08-21T07:57:37;100595.63;;;18.71;60.17
23281;BME280;11809;56.390;-3.266;2022-08-21T08:00:11;100592.72;;;18.74;60.07
23281;BME280;11809;56.390;-3.266;2022-08-21T08:02:39;100596.97;;;18.77;60.36
23281;BME280;11809;56.390;-3.266;2022-08-21T08:05:09;100593.00;;;18.83;60.24
23281;BME280;11809;56.390;-3.266;2022-08-21T08:07:38;100594.50;;;18.87;60.38
23281;BME280;11809;56.390;-3.266;2022-08-21T08:10:06;100590.63;;;18.91;60.41
23281;BME280;11809;56.390;-3.266;2022-08-21T08:12:35;100599.09;;;18.96;60.42
23281;BME280;11809;56.390;-3.266;2022-08-21T08:15:07;100597.94;;;19.00;60.19
23281;BME280;11809;56.390;-3.266;2022-08-21T08:17:34;100593.09;;;19.05;61.23
23281;BME280;11809;56.390;-3.266;2022-08-21T08:20:02;100593.69;;;19.08;60.92
23281;BME280;11809;56.390;-3.266;2022-08-21T08:22:29;100593.25;;;19.14;60.68
23281;BME280;11809;56.390;-3.266;2022-08-21T08:24:56;100601.34;;;19.13;59.63
23281;BME280;11809;56.390;-3.266;2022-08-21T08:27:24;100597.94;;;19.11;59.26
23281;BME280;11809;56.390;-3.266;2022-08-21T08:29:51;100599.41;;;19.15;59.79
23281;BME280;11809;56.390;-3.266;2022-08-21T08:32:19;100602.56;;;19.20;59.75
23281;BME280;11809;56.390;-3.266;2022-08-21T08:34:47;100605.09;;;19.21;59.19
23281;BME280;11809;56.390;-3.266;2022-08-21T08:37:15;100598.72;;;19.24;59.49
23281;BME280;11809;56.390;-3.266;2022-08-21T08:39:43;100611.69;;;19.28;59.47
23281;BME280;11809;56.390;-3.266;2022-08-21T08:42:23;100618.47;;;19.32;59.47
23281;BME280;11809;56.390;-3.266;2022-08-21T08:45:16;100622.22;;;19.30;57.70
23281;BME280;11809;56.390;-3.266;2022-08-21T08:47:48;100631.91;;;19.31;58.05
23281;BME280;11809;56.390;-3.266;2022-08-21T08:50:38;100625.88;;;19.29;57.00
23281;BME280;11809;56.390;-3.266;2022-08-21T08:53:14;100629.25;;;19.31;56.15
23281;BME280;11809;56.390;-3.266;2022-08-21T08:55:44;100632.66;;;19.33;55.79
23281;BME280;11809;56.390;-3.266;2022-08-21T08:58:20;100638.69;;;19.35;55.76
23281;BME280;11809;56.390;-3.266;2022-08-21T09:00:52;100625.50;;;19.33;55.73
23281;BME280;11809;56.390;-3.266;2022-08-21T09:03:22;100634.34;;;19.34;55.24
23281;BME280;11809;56.390;-3.266;2022-08-21T09:11:28;100639.47;;;19.37;53.77
23281;BME280;11809;56.390;-3.266;2022-08-21T09:24:37;100639.75;;;19.45;53.28
23281;BME280;11809;56.390;-3.266;2022-08-21T09:27:12;100643.13;;;19.47;53.79
23281;BME280;11809;56.390;-3.266;2022-08-21T09:29:46;100648.97;;;19.52;53.51
23281;BME280;11809;56.390;-3.266;2022-08-21T09:43:01;100656.50;;;19.69;54.07
23281;BME280;11809;56.390;-3.266;2022-08-21T09:45:29;100654.69;;;19.70;53.96
23281;BME280;11809;56.390;-3.266;2022-08-21T09:51:08;100664.13;;;19.63;53.59
23281;BME280;11809;56.390;-3.266;2022-08-21T09:53:39;100664.50;;;19.58;52.80
23281;BME280;11809;56.390;-3.266;2022-08-21T09:56:28;100669.34;;;19.53;52.26
23281;BME280;11809;56.390;-3.266;2022-08-21T09:59:33;100669.19;;;19.55;52.93
23281;BME280;11809;56.390;-3.266;2022-08-21T10:02:26;100681.81;;;19.53;52.94
23281;BME280;11809;56.390;-3.266;2022-08-21T10:05:00;100670.28;;;19.52;52.89
23281;BME280;11809;56.390;-3.266;2022-08-21T10:07:30;100673.19;;;19.49;52.84
23281;BME280;11809;56.390;-3.266;2022-08-21T10:10:00;100677.66;;;19.49;52.96
23281;BME280;11809;56.390;-3.266;2022-08-21T10:12:36;100677.28;;;19.42;52.57
23281;BME280;11809;56.390;-3.266;2022-08-21T10:15:23;100688.19;;;19.39;52.51
23281;BME280;11809;56.390;-3.266;2022-08-21T10:23:54;100688.31;;;19.49;53.15
23281;BME280;11809;56.390;-3.266;2022-08-21T10:26:43;100690.25;;;19.47;52.61
23281;BME280;11809;56.390;-3.266;2022-08-21T10:32:43;100696.06;;;19.41;52.82
23281;BME280;11809;56.390;-3.266;2022-08-21T10:40:29;100695.53;;;19.35;53.24
23281;BME280;11809;56.390;-3.266;2022-08-21T10:43:21;100704.19;;;19.39;53.28
23281;BME280;11809;56.390;-3.266;2022-08-21T10:48:37;100697.22;;;19.36;52.96
23281;BME280;11809;56.390;-3.266;2022-08-21T10:51:34;100710.66;;;19.35;52.83
23281;BME280;11809;56.390;-3.266;2022-08-21T10:54:12;100707.03;;;19.36;52.89
23281;BME280;11809;56.390;-3.266;2022-08-21T10:56:51;100709.94;;;19.33;52.31
23281;BME280;11809;56.390;-3.266;2022-08-21T10:59:28;100708.25;;;19.32;52.21
23281;BME280;11809;56.390;-3.266;2022-08-21T11:07:20;100715.97;;;19.24;52.08
23281;BME280;11809;56.390;-3.266;2022-08-21T11:09:51;100721.28;;;19.24;52.34
23281;BME280;11809;56.390;-3.266;2022-08-21T11:12:26;100719.59;;;19.23;52.04
23281;BME280;11809;56.390;-3.266;2022-08-21T11:15:07;100708.78;;;19.24;52.75
23281;BME280;11809;56.390;-3.266;2022-08-21T11:18:20;100705.31;;;19.24;53.02
23281;BME280;11809;56.390;-3.266;2022-08-21T11:26:43;100728.34;;;19.36;53.69
23281;BME280;11809;56.390;-3.266;2022-08-21T11:29:22;100735.63;;;19.34;54.10
23281;BME280;11809;56.390;-3.266;2022-08-21T11:34:59;100732.91;;;19.23;53.70
23281;BME280;11809;56.390;-3.266;2022-08-21T11:37:56;100748.38;;;19.18;53.41
23281;BME280;11809;56.390;-3.266;2022-08-21T11:43:37;100743.16;;;19.16;53.61
23281;BME280;11809;56.390;-3.266;2022-08-21T11:57:29;100764.81;;;19.12;53.94
23281;BME280;11809;56.390;-3.266;2022-08-21T12:00:07;100759.72;;;19.09;53.77
23281;BME280;11809;56.390;-3.266;2022-08-21T12:02:54;100764.72;;;19.13;53.99
23281;BME280;11809;56.390;-3.266;2022-08-21T12:05:31;100772.47;;;19.16;54.08
23281;BME280;11809;56.390;-3.266;2022-08-21T12:10:37;100762.50;;;19.07;52.40
23281;BME280;11809;56.390;-3.266;2022-08-21T12:13:25;100775.81;;;19.07;52.25
23281;BME280;11809;56.390;-3.266;2022-08-21T12:16:15;100774.22;;;19.05;51.24
23281;BME280;11809;56.390;-3.266;2022-08-21T12:19:10;100776.16;;;19.03;50.87
23281;BME280;11809;56.390;-3.266;2022-08-21T12:24:37;100785.09;;;19.02;50.04
23281;BME280;11809;56.390;-3.266;2022-08-21T12:30:05;100775.31;;;19.02;50.19
23281;BME280;11809;56.390;-3.266;2022-08-21T12:32:45;100781.25;;;19.06;51.49
23281;BME280;11809;56.390;-3.266;2022-08-21T12:35:25;100782.09;;;19.06;52.25
23281;BME280;11809;56.390;-3.266;2022-08-21T12:38:07;100783.91;;;19.06;52.34
23281;BME280;11809;56.390;-3.266;2022-08-21T12:40:50;100783.81;;;19.07;51.97
23281;BME280;11809;56.390;-3.266;2022-08-21T12:43:29;100790.50;;;19.13;51.74
23281;BME280;11809;56.390;-3.266;2022-08-21T12:45:57;100785.78;;;19.16;50.33
23281;BME280;11809;56.390;-3.266;2022-08-21T12:48:57;100786.63;;;19.17;51.96
23281;BME280;11809;56.390;-3.266;2022-08-21T12:54:27;100794.53;;;19.18;52.63
23281;BME280;11809;56.390;-3.266;2022-08-21T12:57:02;100791.00;;;19.18;52.52
23281;BME280;11809;56.390;-3.266;2022-08-21T12:59:31;100791.00;;;19.18;52.71
23281;BME280;11809;56.390;-3.266;2022-08-21T13:02:00;100787.50;;;19.17;52.69
23281;BME280;11809;56.390;-3.266;2022-08-21T13:04:38;100779.38;;;19.19;52.60
23281;BME280;11809;56.390;-3.266;2022-08-21T13:07:08;100780.97;;;19.21;52.61
23281;BME280;11809;56.390;-3.266;2022-08-21T13:10:02;100786.94;;;19.25;52.76
23281;BME280;11809;56.390;-3.266;2022-08-21T13:12:30;100787.78;;;19.25;52.61
23281;BME280;11809;56.390;-3.266;2022-08-21T13:15:02;100791.19;;;19.27;52.73
23281;BME280;11809;56.390;-3.266;2022-08-21T13:17:38;100800.03;;;19.28;52.45
23281;BME280;11809;56.390;-3.266;2022-08-21T13:22:41;100790.31;;;19.27;52.25
23281;BME280;11809;56.390;-3.266;2022-08-21T13:25:14;100792.88;;;19.28;52.15
23281;BME280;11809;56.390;-3.266;2022-08-21T13:27:43;100791.91;;;19.29;52.21
23281;BME280;11809;56.390;-3.266;2022-08-21T13:30:18;100791.81;;;19.31;52.38
23281;BME280;11809;56.390;-3.266;2022-08-21T13:32:49;100782.75;;;19.33;52.47
23281;BME280;11809;56.390;-3.266;2022-08-21T13:35:30;100784.31;;;19.36;52.28
23281;BME280;11809;56.390;-3.266;2022-08-21T13:37:58;100789.75;;;19.47;51.80
23281;BME280;11809;56.390;-3.266;2022-08-21T13:40:32;100785.13;;;19.49;52.13
23281;BME280;11809;56.390;-3.266;2022-08-21T13:43:12;100792.91;;;19.52;51.49
23281;BME280;11809;56.390;-3.266;2022-08-21T13:45:50;100788.66;;;19.50;52.29
23281;BME280;11809;56.390;-3.266;2022-08-21T13:48:19;100790.47;;;19.49;52.42
23281;BME280;11809;56.390;-3.266;2022-08-21T13:50:46;100789.75;;;19.47;52.54
23281;BME280;11809;56.390;-3.266;2022-08-21T13:53:27;100796.88;;;19.47;52.57
23281;BME280;11809;56.390;-3.266;2022-08-21T13:55:55;100798.69;;;19.46;52.79
23281;BME280;11809;56.390;-3.266;2022-08-21T13:58:30;100801.34;;;19.46;52.99
23281;BME280;11809;56.390;-3.266;2022-08-21T14:00:59;100805.00;;;19.45;53.17
23281;BME280;11809;56.390;-3.266;2022-08-21T14:03:42;100803.81;;;19.49;52.49
23281;BME280;11809;56.390;-3.266;2022-08-21T14:06:15;100796.66;;;19.50;53.19
23281;BME280;11809;56.390;-3.266;2022-08-21T14:08:49;100802.94;;;19.49;51.38
23281;BME280;11809;56.390;-3.266;2022-08-21T14:11:17;100802.00;;;19.50;52.18
23281;BME280;11809;56.390;-3.266;2022-08-21T14:16:28;100798.38;;;19.51;50.11
23281;BME280;11809;56.390;-3.266;2022-08-21T14:21:38;100801.28;;;19.59;49.18
23281;BME280;11809;56.390;-3.266;2022-08-21T14:24:07;100809.19;;;19.60;50.24
23281;BME280;11809;56.390;-3.266;2022-08-21T14:26:43;100809.06;;;19.62;49.30
23281;BME280;11809;56.390;-3.266;2022-08-21T14:29:13;100812.34;;;19.65;49.98
23281;BME280;11809;56.390;-3.266;2022-08-21T14:31:40;100817.69;;;19.65;49.90
23281;BME280;11809;56.390;-3.266;2022-08-21T14:34:11;100816.59;;;19.68;49.69
23281;BME280;11809;56.390;-3.266;2022-08-21T14:36:46;100817.34;;;19.70;49.05
23281;BME280;11809;56.390;-3.266;2022-08-21T14:39:13;100821.81;;;19.69;49.82
23281;BME280;11809;56.390;-3.266;2022-08-21T14:41:41;100823.66;;;19.69;49.09
23281;BME280;11809;56.390;-3.266;2022-08-21T14:44:09;100811.03;;;19.71;49.55
23281;BME280;11809;56.390;-3.266;2022-08-21T14:46:37;100831.28;;;19.73;48.33